Knightdale, North Carolina
Current Conditions -  °F | °C
As of 7:55 AM on Thursday 27 Nov 2014 (Local Time) from KLHZ Reporting Station
Drizzle Drizzle  
Wind Chill: 34°   Ceiling: 300
Heat Index: 37°   Visibility: 3mi
Dew Point: 37°   Wind: 5mph
Humidity: 100%   Direction: 170°S
Pressure: 30.03"   Gusts: NA
Location:  35.79°N, 78.48°W
Report Text: KLHZ 271255Z AUTO 17004KT 3SM -DZ OVC003 03/03 A3003 RMK AO2
Loading
Personal Weather Stations






























Interactive Weather Map New forecast layout! Learn more

10-Day Weather Forecast

Advertisements
Track Severe Weather on mobile